logo
Search for airport 
image banner adimage banner adimage banner ad
image banner ad

9PTA - Atum-3

Located in , Brazil

ICAO - 9PTA, IATA -

Data provided by Airmate  

General information

Coordinates: S2°59'6" W38°58'31"
Elevation is 124 feet MSL.
 
View others Airports in Ceará

Operational data

Special qualification required
Current time UTC:
Current local time:
Weather at : - ( 0 km )
METAR: KIXA 131505Z AUTO 28016G33KT 10SM CLR 16/07 A2998 RMK AO2
View NOTAMs / SUP AIP / TFR affecting this airport [VIEW]
Communications frequencies: [VIEW]

Runways:

Airport contact information

Address: Brazil

Satellite view of 9PTA